createdAt,value
2023-02-18T00:00:32.328Z,25.55
2023-02-18T00:01:21.220Z,25.70
2023-02-18T00:02:14.212Z,21.48
2023-02-18T00:03:01.375Z,23.08
2023-02-18T00:03:48.655Z,25.05
2023-02-18T00:04:35.749Z,23.52
2023-02-18T00:05:23.179Z,21.98
2023-02-18T00:06:19.624Z,25.10
2023-02-18T00:07:06.605Z,21.12
2023-02-18T00:07:53.734Z,20.60
2023-02-18T00:08:42.581Z,21.15
2023-02-18T00:09:29.740Z,22.23
2023-02-18T00:10:17.168Z,22.52
2023-02-18T00:11:06.751Z,22.27
2023-02-18T00:11:54.712Z,19.65
2023-02-18T00:12:42.299Z,22.87
2023-02-18T00:13:29.260Z,23.75
2023-02-18T00:14:17.218Z,22.27
2023-02-18T00:15:04.613Z,23.85
2023-02-18T00:15:51.660Z,22.08
2023-02-18T00:16:38.857Z,19.67
2023-02-18T00:17:26.134Z,20.30
2023-02-18T00:18:13.128Z,20.55
2023-02-18T00:19:02.684Z,18.05
2023-02-18T00:19:49.790Z,17.67
2023-02-18T00:20:39.830Z,16.75
2023-02-18T00:21:27.290Z,17.30
2023-02-18T00:22:14.272Z,18.35
2023-02-18T00:23:01.304Z,18.50
2023-02-18T00:23:48.429Z,16.98
2023-02-18T00:24:35.518Z,18.67
2023-02-18T00:25:22.630Z,17.48
2023-02-18T00:26:13.273Z,16.73
2023-02-18T00:27:47.410Z,22.27
2023-02-18T00:28:35.050Z,16.12
2023-02-18T00:29:22.061Z,19.17
2023-02-18T00:30:09.445Z,14.55
2023-02-18T00:30:56.801Z,16.75
2023-02-18T00:31:44.226Z,13.10
2023-02-18T00:32:31.344Z,15.80
2023-02-18T00:33:18.371Z,17.25
2023-02-18T00:34:05.993Z,13.95
2023-02-18T00:34:53.519Z,15.00
2023-02-18T00:35:40.500Z,14.07
2023-02-18T00:36:28.015Z,14.60
2023-02-18T00:37:15.068Z,13.18
2023-02-18T00:38:02.407Z,13.57
2023-02-18T00:38:52.154Z,13.80
2023-02-18T00:39:39.152Z,12.87
2023-02-18T00:40:26.292Z,15.15
2023-02-18T00:41:13.690Z,21.65
2023-02-18T00:42:00.569Z,14.43
2023-02-18T00:42:47.476Z,13.80
2023-02-18T00:43:34.432Z,12.02
2023-02-18T00:44:21.532Z,12.65
2023-02-18T00:45:09.067Z,13.32
2023-02-18T00:45:56.055Z,13.62
2023-02-18T00:46:43.475Z,14.57
2023-02-18T00:47:30.564Z,16.12
2023-02-18T00:48:17.720Z,13.88
2023-02-18T00:49:05.672Z,14.93
2023-02-18T00:49:52.589Z,11.60
2023-02-18T00:50:39.718Z,13.88
2023-02-18T00:51:26.948Z,12.80
2023-02-18T00:52:13.952Z,12.48
2023-02-18T00:53:01.138Z,11.45
2023-02-18T00:53:48.152Z,12.10
2023-02-18T00:54:35.303Z,13.00
2023-02-18T00:55:22.347Z,14.27
2023-02-18T00:56:09.949Z,14.68
2023-02-18T00:56:57.203Z,14.98
2023-02-18T00:57:44.260Z,17.45
2023-02-18T00:58:31.643Z,16.62
2023-02-18T00:59:18.717Z,15.20
2023-02-18T01:00:06.905Z,15.15
2023-02-18T01:00:55.222Z,15.57
2023-02-18T01:01:42.357Z,15.27
2023-02-18T01:02:29.470Z,16.45
2023-02-18T01:03:16.626Z,17.00
2023-02-18T01:04:03.714Z,20.23
2023-02-18T01:04:50.743Z,20.65
2023-02-18T01:05:38.661Z,18.20
2023-02-18T01:06:25.668Z,19.73
2023-02-18T01:07:12.797Z,20.10
2023-02-18T01:07:59.942Z,17.45
2023-02-18T01:08:46.984Z,18.25
2023-02-18T01:09:34.014Z,21.35
2023-02-18T01:10:21.406Z,19.55
2023-02-18T01:11:09.893Z,18.55
2023-02-18T01:11:56.928Z,19.62
2023-02-18T01:12:44.074Z,17.65
2023-02-18T01:13:31.517Z,17.92
2023-02-18T01:14:18.540Z,19.12
2023-02-18T01:15:07.157Z,18.25
2023-02-18T01:15:54.275Z,19.58
2023-02-18T01:16:41.408Z,20.00
2023-02-18T01:17:28.508Z,19.25
2023-02-18T01:18:15.674Z,17.85
2023-02-18T01:19:02.834Z,20.67
2023-02-18T01:19:49.896Z,20.85
2023-02-18T01:20:38.282Z,21.33
2023-02-18T01:21:25.288Z,18.75
2023-02-18T01:22:12.323Z,20.42
2023-02-18T01:22:59.439Z,20.15
2023-02-18T01:23:46.559Z,20.73
2023-02-18T01:24:33.839Z,20.85
2023-02-18T01:25:20.950Z,17.67
2023-02-18T01:26:09.142Z,21.25
2023-02-18T01:26:56.488Z,20.17
2023-02-18T01:27:43.893Z,24.00
2023-02-18T01:28:31.197Z,19.67
2023-02-18T01:29:18.280Z,18.75
2023-02-18T01:30:06.758Z,22.90
2023-02-18T01:30:54.570Z,22.67
2023-02-18T01:31:41.736Z,17.50
2023-02-18T01:32:28.836Z,20.00
2023-02-18T01:33:15.884Z,20.35
2023-02-18T01:34:03.010Z,25.23
2023-02-18T01:34:50.053Z,19.73
2023-02-18T01:35:41.128Z,21.25
2023-02-18T01:36:28.260Z,22.17
2023-02-18T01:37:15.797Z,21.17
2023-02-18T01:38:03.038Z,24.25
2023-02-18T01:38:50.131Z,23.48
2023-02-18T01:39:37.168Z,19.77
2023-02-18T01:40:27.200Z,20.92
2023-02-18T01:41:14.108Z,22.65
2023-02-18T01:42:01.158Z,20.77
2023-02-18T01:42:48.468Z,21.33
2023-02-18T01:43:35.606Z,20.77
2023-02-18T01:44:25.533Z,23.30
2023-02-18T01:45:34.550Z,21.45
2023-02-18T01:46:22.698Z,20.27
2023-02-18T01:47:09.907Z,21.55
2023-02-18T01:47:56.984Z,18.55
2023-02-18T01:48:54.353Z,24.42
2023-02-18T01:49:41.861Z,20.27
2023-02-18T01:50:28.875Z,21.67
2023-02-18T01:51:27.963Z,18.87
2023-02-18T01:52:18.712Z,21.60
2023-02-18T01:53:05.910Z,21.95
2023-02-18T01:54:11.659Z,19.45
2023-02-18T01:54:59.025Z,21.12
2023-02-18T01:55:47.018Z,21.95
2023-02-18T01:56:42.767Z,19.73
2023-02-18T01:57:36.107Z,21.25
2023-02-18T01:58:24.070Z,22.70
2023-02-18T01:59:14.386Z,23.08
2023-02-18T02:00:12.530Z,19.83
2023-02-18T02:00:59.576Z,21.87
2023-02-18T02:01:47.300Z,22.40
2023-02-18T02:02:37.035Z,19.27
2023-02-18T02:03:24.233Z,20.85
2023-02-18T02:04:11.670Z,21.02
2023-02-18T02:04:58.635Z,19.42
2023-02-18T02:05:45.548Z,21.85
2023-02-18T02:06:32.693Z,21.87
2023-02-18T02:07:21.383Z,18.60
2023-02-18T02:08:08.494Z,20.12
2023-02-18T02:08:59.032Z,19.52
2023-02-18T02:09:46.555Z,21.50
2023-02-18T02:11:16.224Z,20.15
2023-02-18T02:12:23.649Z,20.15
2023-02-18T02:13:15.831Z,23.23
2023-02-18T02:14:40.687Z,19.30
2023-02-18T02:15:39.733Z,18.55
2023-02-18T02:16:33.414Z,20.33
2023-02-18T02:17:38.903Z,20.62
2023-02-18T02:18:47.557Z,19.75
2023-02-18T02:19:40.641Z,21.00
2023-02-18T02:20:46.748Z,22.37
2023-02-18T02:21:54.036Z,21.02
2023-02-18T02:23:14.793Z,21.20
2023-02-18T02:24:36.075Z,20.70
2023-02-18T02:27:07.002Z,19.80
2023-02-18T02:28:23.859Z,19.17
2023-02-18T02:30:47.726Z,22.02
2023-02-18T02:31:58.421Z,20.20
2023-02-18T02:32:59.713Z,21.48
2023-02-18T02:34:13.844Z,20.45
2023-02-18T02:35:06.222Z,18.52
2023-02-18T02:36:02.942Z,21.05
2023-02-18T02:37:25.547Z,20.15
2023-02-18T02:38:33.814Z,17.87
2023-02-18T02:39:31.722Z,20.65
2023-02-18T02:40:45.452Z,18.35
2023-02-18T02:41:50.562Z,19.55
2023-02-18T02:43:02.092Z,18.25
2023-02-18T02:44:01.973Z,17.12
2023-02-18T02:44:52.154Z,16.92
2023-02-18T02:46:16.998Z,16.00
2023-02-18T02:47:12.205Z,19.92
2023-02-18T02:48:04.685Z,18.50
2023-02-18T02:49:26.816Z,19.62
2023-02-18T02:50:25.646Z,17.55
2023-02-18T02:51:26.256Z,17.70
2023-02-18T02:52:22.693Z,16.85
2023-02-18T02:53:28.940Z,18.98
2023-02-18T02:54:21.778Z,18.10
2023-02-18T02:55:10.746Z,18.15
2023-02-18T02:55:57.602Z,18.37
2023-02-18T02:56:44.710Z,18.95
2023-02-18T02:57:31.621Z,16.23
2023-02-18T02:58:19.921Z,16.98
2023-02-18T02:59:09.800Z,17.90
2023-02-18T03:00:00.875Z,20.62
2023-02-18T03:01:08.030Z,19.60
2023-02-18T03:02:06.649Z,16.08
2023-02-18T03:03:08.969Z,17.12
2023-02-18T03:04:43.438Z,16.00
2023-02-18T03:05:43.988Z,18.62
2023-02-18T03:06:41.807Z,18.40
2023-02-18T03:07:48.532Z,15.77
2023-02-18T03:09:18.539Z,17.25
2023-02-18T03:10:08.117Z,16.90
2023-02-18T03:11:13.111Z,18.65
2023-02-18T03:12:18.539Z,17.58
2023-02-18T03:13:22.340Z,17.20
2023-02-18T03:14:21.821Z,18.15
2023-02-18T03:15:25.243Z,16.67
2023-02-18T03:16:44.121Z,17.58
2023-02-18T03:17:36.238Z,13.95
2023-02-18T03:18:34.623Z,15.13
2023-02-18T03:19:32.598Z,18.73
2023-02-18T03:20:27.889Z,14.05
2023-02-18T03:21:28.101Z,18.62
2023-02-18T03:22:25.998Z,17.33
2023-02-18T03:23:17.970Z,17.08
2023-02-18T03:24:18.318Z,15.57
2023-02-18T03:25:06.088Z,15.10
2023-02-18T03:25:53.579Z,14.43
2023-02-18T03:26:45.708Z,16.35
2023-02-18T03:27:35.591Z,16.42
2023-02-18T03:28:24.748Z,14.05
2023-02-18T03:29:12.839Z,16.77
2023-02-18T03:30:04.757Z,17.85
2023-02-18T03:30:54.079Z,14.18
2023-02-18T03:31:43.529Z,17.73
2023-02-18T03:32:32.086Z,13.65
2023-02-18T03:33:25.504Z,14.40
2023-02-18T03:34:19.046Z,15.35
2023-02-18T03:35:17.528Z,15.32
2023-02-18T03:36:04.797Z,16.15
2023-02-18T03:36:51.728Z,15.63
2023-02-18T03:37:44.069Z,17.90
2023-02-18T03:38:30.893Z,13.65
2023-02-18T03:39:20.181Z,14.10
2023-02-18T03:40:07.941Z,15.52
2023-02-18T03:40:54.902Z,15.00
2023-02-18T03:41:42.189Z,15.57
2023-02-18T03:42:29.751Z,17.23
2023-02-18T03:43:16.640Z,14.65
2023-02-18T03:44:08.100Z,15.00
2023-02-18T03:44:54.970Z,16.08
2023-02-18T03:45:41.833Z,14.02
2023-02-18T03:46:29.913Z,15.65
2023-02-18T03:47:16.739Z,15.20
2023-02-18T03:48:03.752Z,15.02
2023-02-18T03:48:50.629Z,17.87
2023-02-18T03:49:37.492Z,13.52
2023-02-18T03:50:24.801Z,15.23
2023-02-18T03:51:12.004Z,13.85
2023-02-18T03:51:58.882Z,16.42
2023-02-18T03:52:46.162Z,15.15
2023-02-18T03:53:32.959Z,17.83
2023-02-18T03:54:20.502Z,14.65
2023-02-18T03:55:07.627Z,16.80
2023-02-18T03:55:54.482Z,14.95
2023-02-18T03:56:41.607Z,14.95
2023-02-18T03:57:28.411Z,14.68
2023-02-18T03:58:15.356Z,15.30
2023-02-18T03:59:02.258Z,15.48
2023-02-18T03:59:49.120Z,13.50
2023-02-18T04:00:35.997Z,14.25
2023-02-18T04:01:23.578Z,14.38
2023-02-18T04:02:10.457Z,15.57
2023-02-18T04:02:57.283Z,14.73
2023-02-18T04:03:44.155Z,14.80
2023-02-18T04:04:31.222Z,15.57
2023-02-18T04:05:18.137Z,13.65
2023-02-18T04:06:05.295Z,15.10
2023-02-18T04:06:52.214Z,14.80
2023-02-18T04:07:39.173Z,11.85
2023-02-18T04:08:26.158Z,14.27
2023-02-18T04:09:13.065Z,16.15
2023-02-18T04:09:59.885Z,19.90
2023-02-18T04:10:46.733Z,13.45
2023-02-18T04:11:33.565Z,15.23
2023-02-18T04:12:20.770Z,14.60
2023-02-18T04:13:07.648Z,15.82
2023-02-18T04:13:54.491Z,13.73
2023-02-18T04:14:41.492Z,13.43
2023-02-18T04:15:28.348Z,13.62
2023-02-18T04:16:15.295Z,13.35
2023-02-18T04:17:02.233Z,12.77
2023-02-18T04:17:49.120Z,13.40
2023-02-18T04:18:36.024Z,13.15
2023-02-18T04:19:22.964Z,12.13
2023-02-18T04:20:10.565Z,12.18
2023-02-18T04:20:57.388Z,12.93
2023-02-18T04:21:44.228Z,11.00
2023-02-18T04:22:31.125Z,11.98
2023-02-18T04:23:18.172Z,11.38
2023-02-18T04:24:05.152Z,11.98
2023-02-18T04:24:52.016Z,11.98
2023-02-18T04:25:39.200Z,12.07
2023-02-18T04:26:26.191Z,10.02
2023-02-18T04:27:12.988Z,11.15
2023-02-18T04:27:59.955Z,9.93
2023-02-18T04:28:46.740Z,10.07
2023-02-18T04:29:33.643Z,10.65
2023-02-18T04:30:20.661Z,10.30
2023-02-18T04:31:07.675Z,11.25
2023-02-18T04:31:54.592Z,12.55
2023-02-18T04:32:41.484Z,9.25
2023-02-18T04:33:28.304Z,10.02
2023-02-18T04:34:15.165Z,9.02
2023-02-18T04:35:02.035Z,10.38
2023-02-18T04:35:48.882Z,9.00
2023-02-18T04:36:35.839Z,9.30
2023-02-18T04:37:22.706Z,9.90
2023-02-18T04:38:10.792Z,9.63
2023-02-18T04:38:57.673Z,9.32
2023-02-18T04:39:44.531Z,9.55
2023-02-18T04:40:31.365Z,10.98
2023-02-18T04:41:18.203Z,8.13
2023-02-18T04:42:09.237Z,8.48
2023-02-18T04:42:56.493Z,9.65
2023-02-18T04:43:43.324Z,8.88
2023-02-18T04:44:30.204Z,10.00
2023-02-18T04:45:17.073Z,10.73
2023-02-18T04:46:04.294Z,9.38
2023-02-18T04:46:51.162Z,8.13
2023-02-18T04:47:38.184Z,8.77
2023-02-18T04:48:25.014Z,9.82
2023-02-18T04:49:11.840Z,9.43
2023-02-18T04:49:58.653Z,9.07
2023-02-18T04:50:45.642Z,9.80
2023-02-18T04:51:32.509Z,10.80
2023-02-18T04:52:19.640Z,9.60
2023-02-18T04:53:06.480Z,8.40
2023-02-18T04:53:53.303Z,10.48
2023-02-18T04:54:40.217Z,7.90
2023-02-18T04:55:27.114Z,9.23
2023-02-18T04:56:14.113Z,7.95
2023-02-18T04:57:00.902Z,9.68
2023-02-18T04:57:47.757Z,9.05
2023-02-18T04:58:34.751Z,7.70
2023-02-18T04:59:21.689Z,8.57
2023-02-18T05:00:10.051Z,9.13
2023-02-18T05:01:04.345Z,7.85
2023-02-18T05:01:51.265Z,7.68
2023-02-18T05:02:38.079Z,10.35
2023-02-18T05:03:24.865Z,10.13
2023-02-18T05:04:11.738Z,7.62
2023-02-18T05:04:58.597Z,6.55
2023-02-18T05:05:46.111Z,7.72
2023-02-18T05:06:33.149Z,7.10
2023-02-18T05:07:20.057Z,6.35
2023-02-18T05:08:06.955Z,6.32
2023-02-18T05:08:53.782Z,6.68
2023-02-18T05:09:40.717Z,7.28
2023-02-18T05:10:27.767Z,7.47
2023-02-18T05:11:14.589Z,5.62
2023-02-18T05:12:01.412Z,6.18
2023-02-18T05:12:48.212Z,6.95
2023-02-18T05:13:35.535Z,5.62
2023-02-18T05:14:22.390Z,5.70
2023-02-18T05:15:09.921Z,6.35
2023-02-18T05:15:56.835Z,5.68
2023-02-18T05:16:43.688Z,6.25
2023-02-18T05:17:30.549Z,4.97
2023-02-18T05:18:17.370Z,5.93
2023-02-18T05:19:04.229Z,4.25
2023-02-18T05:19:51.286Z,4.72
2023-02-18T05:20:38.178Z,4.22
2023-02-18T05:21:25.070Z,4.93
2023-02-18T05:22:11.916Z,3.40
2023-02-18T05:22:58.780Z,4.03
2023-02-18T05:23:45.624Z,3.35
2023-02-18T05:24:32.468Z,3.35
2023-02-18T05:25:19.350Z,5.95
2023-02-18T05:26:06.600Z,3.03
2023-02-18T05:26:53.551Z,3.12
2023-02-18T05:27:40.442Z,2.15
2023-02-18T05:28:27.325Z,3.30
2023-02-18T05:29:14.151Z,3.33
2023-02-18T05:30:01.090Z,3.40
2023-02-18T05:30:48.035Z,3.85
2023-02-18T05:31:35.010Z,3.00
2023-02-18T05:32:22.259Z,2.83
2023-02-18T05:33:09.158Z,4.18
2023-02-18T05:33:55.961Z,2.70
2023-02-18T05:34:42.840Z,3.20
2023-02-18T05:35:29.678Z,2.70
2023-02-18T05:36:16.601Z,4.07
2023-02-18T05:37:03.541Z,2.40
2023-02-18T05:37:50.386Z,3.12
2023-02-18T05:38:37.210Z,2.70
2023-02-18T05:39:24.031Z,4.87
2023-02-18T05:40:12.327Z,2.60
2023-02-18T05:40:59.113Z,2.33
2023-02-18T05:41:45.969Z,3.58
2023-02-18T05:42:33.235Z,2.90
2023-02-18T05:43:20.104Z,2.70
2023-02-18T05:44:25.622Z,2.67
2023-02-18T05:45:12.451Z,3.90
2023-02-18T05:45:59.307Z,2.72
2023-02-18T05:46:46.250Z,2.42
2023-02-18T05:47:33.131Z,3.12
2023-02-18T05:48:19.989Z,2.78
2023-02-18T05:49:06.860Z,2.72
2023-02-18T05:49:53.749Z,2.65
2023-02-18T05:50:40.616Z,2.65
2023-02-18T05:51:27.518Z,2.45
2023-02-18T05:52:14.441Z,3.20
2023-02-18T05:53:01.269Z,2.70
2023-02-18T05:53:48.138Z,3.10
2023-02-18T05:54:35.623Z,2.42
2023-02-18T05:55:22.598Z,2.60
2023-02-18T05:56:09.681Z,2.30
2023-02-18T05:56:56.868Z,2.85
2023-02-18T05:57:43.786Z,2.47
2023-02-18T05:58:30.581Z,2.40
2023-02-18T05:59:17.650Z,3.72
2023-02-18T06:00:06.110Z,3.30
2023-02-18T06:00:52.959Z,2.72
2023-02-18T06:01:40.059Z,4.32
2023-02-18T06:02:26.923Z,3.37
2023-02-18T06:03:13.796Z,2.35
2023-02-18T06:04:00.560Z,2.25
2023-02-18T06:04:47.389Z,2.97
2023-02-18T06:05:34.261Z,3.00
2023-02-18T06:06:21.119Z,2.65
2023-02-18T06:07:07.968Z,2.70
2023-02-18T06:07:56.635Z,2.72
2023-02-18T06:08:43.673Z,2.58
2023-02-18T06:09:30.529Z,2.83
2023-02-18T06:10:18.680Z,2.87
2023-02-18T06:11:05.562Z,3.35
2023-02-18T06:11:52.538Z,3.65
2023-02-18T06:12:39.488Z,2.53
2023-02-18T06:13:26.393Z,2.95
2023-02-18T06:14:13.353Z,2.85
2023-02-18T06:15:00.158Z,3.22
2023-02-18T06:15:47.211Z,4.00
2023-02-18T06:16:34.168Z,2.75
2023-02-18T06:17:22.771Z,2.97
2023-02-18T06:18:09.628Z,3.10
2023-02-18T06:18:56.519Z,2.95
2023-02-18T06:19:43.369Z,4.53
2023-02-18T06:20:30.178Z,3.08
2023-02-18T06:21:17.149Z,2.83
2023-02-18T06:22:04.087Z,3.30
2023-02-18T06:22:50.913Z,3.33
2023-02-18T06:23:37.813Z,2.80
2023-02-18T06:24:24.754Z,3.00
2023-02-18T06:25:11.679Z,3.33
2023-02-18T06:25:58.579Z,3.60
2023-02-18T06:26:45.409Z,2.65
2023-02-18T06:27:32.246Z,2.62
2023-02-18T06:28:19.130Z,2.58
2023-02-18T06:29:06.017Z,2.50
2023-02-18T06:29:52.938Z,2.40
2023-02-18T06:30:39.877Z,2.40
2023-02-18T06:31:26.868Z,3.50
2023-02-18T06:32:14.008Z,2.37
2023-02-18T06:33:04.394Z,2.80
2023-02-18T06:33:51.299Z,3.97
2023-02-18T06:34:38.197Z,2.62
2023-02-18T06:35:25.094Z,2.62
2023-02-18T06:36:13.176Z,2.67
2023-02-18T06:37:01.371Z,2.78
2023-02-18T06:37:48.428Z,2.67
2023-02-18T06:38:35.937Z,2.47
2023-02-18T06:39:23.054Z,2.37
2023-02-18T06:40:10.197Z,2.83
2023-02-18T06:40:57.231Z,2.70
2023-02-18T06:41:44.156Z,3.92
2023-02-18T06:42:30.980Z,2.87
2023-02-18T06:43:17.982Z,2.72
2023-02-18T06:44:05.354Z,3.85
2023-02-18T06:44:52.273Z,3.87
2023-02-18T06:45:40.065Z,4.18
2023-02-18T06:46:27.083Z,3.22
2023-02-18T06:47:14.091Z,2.50
2023-02-18T06:48:00.964Z,4.10
2023-02-18T06:48:48.114Z,2.37
2023-02-18T06:49:36.672Z,3.12
2023-02-18T06:50:23.784Z,3.55
2023-02-18T06:51:10.759Z,3.17
2023-02-18T06:51:57.596Z,2.83
2023-02-18T06:52:44.493Z,3.45
2023-02-18T06:53:31.353Z,2.75
2023-02-18T06:54:18.355Z,2.60
2023-02-18T06:55:06.444Z,3.08
2023-02-18T06:55:53.356Z,2.60
2023-02-18T06:56:40.319Z,2.58
2023-02-18T06:57:27.262Z,3.00
2023-02-18T06:58:14.866Z,2.87
2023-02-18T06:59:01.734Z,3.67
2023-02-18T06:59:48.580Z,3.12
2023-02-18T07:00:36.027Z,2.97
2023-02-18T07:01:22.900Z,5.10
2023-02-18T07:02:13.032Z,3.05
2023-02-18T07:02:59.852Z,2.87
2023-02-18T07:03:49.752Z,2.85
2023-02-18T07:04:36.955Z,2.42
2023-02-18T07:05:23.862Z,4.90
2023-02-18T07:06:11.075Z,2.97
2023-02-18T07:06:58.092Z,3.28
2023-02-18T07:07:44.923Z,2.67
2023-02-18T07:08:33.314Z,2.50
2023-02-18T07:09:20.236Z,3.35
2023-02-18T07:10:08.015Z,2.83
2023-02-18T07:10:54.883Z,1.98
2023-02-18T07:11:41.732Z,3.10
2023-02-18T07:12:28.793Z,3.62
2023-02-18T07:13:15.929Z,2.78
2023-02-18T07:14:02.903Z,3.10
2023-02-18T07:14:49.821Z,2.30
2023-02-18T07:15:36.750Z,2.65
2023-02-18T07:16:23.961Z,2.40
2023-02-18T07:17:10.963Z,1.92
2023-02-18T07:17:58.004Z,2.25
2023-02-18T07:18:45.240Z,2.47
2023-02-18T07:19:32.251Z,2.42
2023-02-18T07:20:20.629Z,2.55
2023-02-18T07:21:07.541Z,2.05
2023-02-18T07:21:57.817Z,3.15
2023-02-18T07:22:44.909Z,2.33
2023-02-18T07:23:32.026Z,2.75
2023-02-18T07:24:18.904Z,2.58
2023-02-18T07:25:06.186Z,2.30
2023-02-18T07:25:53.080Z,2.72
2023-02-18T07:26:39.940Z,2.58
2023-02-18T07:27:27.021Z,2.95
2023-02-18T07:28:14.100Z,2.60
2023-02-18T07:29:01.131Z,2.33
2023-02-18T07:29:48.196Z,2.42
2023-02-18T07:30:35.371Z,3.30
2023-02-18T07:31:22.486Z,3.45
2023-02-18T07:32:12.840Z,2.90
2023-02-18T07:32:59.825Z,2.55
2023-02-18T07:33:46.860Z,2.78
2023-02-18T07:34:33.814Z,2.67
2023-02-18T07:35:21.716Z,2.40
2023-02-18T07:36:09.660Z,2.85
2023-02-18T07:36:56.973Z,2.50
2023-02-18T07:37:47.764Z,3.03
2023-02-18T07:38:34.732Z,2.67
2023-02-18T07:39:21.754Z,2.33
2023-02-18T07:40:10.935Z,4.22
2023-02-18T07:40:58.580Z,3.25
2023-02-18T07:41:45.623Z,3.83
2023-02-18T07:42:32.638Z,2.58
2023-02-18T07:43:19.795Z,2.55
2023-02-18T07:44:06.824Z,1.90
2023-02-18T07:44:53.732Z,2.40
2023-02-18T07:45:40.724Z,2.50
2023-02-18T07:46:27.902Z,2.42
2023-02-18T07:47:17.573Z,3.00
2023-02-18T07:48:04.632Z,3.30
2023-02-18T07:48:51.535Z,2.70
2023-02-18T07:49:38.503Z,2.50
2023-02-18T07:50:25.432Z,2.92
2023-02-18T07:51:13.596Z,2.47
2023-02-18T07:52:01.131Z,2.47
2023-02-18T07:52:48.103Z,2.55
2023-02-18T07:53:35.635Z,2.55
2023-02-18T07:54:22.805Z,3.40
2023-02-18T07:55:09.790Z,2.33
2023-02-18T07:56:00.507Z,2.83
2023-02-18T07:56:47.609Z,2.42
2023-02-18T07:57:54.709Z,4.07
2023-02-18T07:58:41.789Z,6.47
2023-02-18T07:59:28.893Z,2.55
2023-02-18T08:00:16.860Z,2.58
2023-02-18T08:01:10.796Z,2.70
2023-02-18T08:01:57.970Z,4.30
2023-02-18T08:02:44.950Z,3.20
2023-02-18T08:03:33.361Z,3.78
2023-02-18T08:04:20.431Z,3.25
2023-02-18T08:05:07.512Z,2.87
2023-02-18T08:05:55.122Z,2.65
2023-02-18T08:06:46.347Z,2.53
2023-02-18T08:07:33.500Z,2.87
2023-02-18T08:08:23.009Z,2.78
2023-02-18T08:09:10.222Z,2.85
2023-02-18T08:09:57.103Z,3.92
2023-02-18T08:10:44.378Z,2.83
2023-02-18T08:11:31.820Z,2.60
2023-02-18T08:12:18.876Z,3.03
2023-02-18T08:13:05.962Z,2.47
2023-02-18T08:13:52.916Z,2.03
2023-02-18T08:14:40.606Z,3.30
2023-02-18T08:15:27.635Z,2.20
2023-02-18T08:16:15.266Z,2.70
2023-02-18T08:17:02.360Z,2.47
2023-02-18T08:17:49.346Z,2.40
2023-02-18T08:18:36.374Z,2.67
2023-02-18T08:19:23.358Z,2.40
2023-02-18T08:20:10.960Z,2.75
2023-02-18T08:20:58.748Z,3.37
2023-02-18T08:21:46.181Z,2.03
2023-02-18T08:22:33.189Z,1.98
2023-02-18T08:23:22.408Z,2.40
2023-02-18T08:24:09.559Z,2.03
2023-02-18T08:24:56.721Z,3.47
2023-02-18T08:25:50.046Z,2.40
2023-02-18T08:26:37.298Z,2.42
2023-02-18T08:27:24.778Z,2.08
2023-02-18T08:28:11.782Z,2.75
2023-02-18T08:28:58.705Z,3.45
2023-02-18T08:29:45.636Z,2.92
2023-02-18T08:30:32.692Z,2.67
2023-02-18T08:31:22.734Z,2.22
2023-02-18T08:32:09.974Z,2.67
2023-02-18T08:32:57.629Z,2.60
2023-02-18T08:33:44.608Z,2.17
2023-02-18T08:34:31.509Z,2.97
2023-02-18T08:35:18.938Z,2.22
2023-02-18T08:36:08.133Z,2.50
2023-02-18T08:36:55.328Z,3.10
2023-02-18T08:37:52.664Z,1.87
2023-02-18T08:38:41.493Z,2.80
2023-02-18T08:39:28.472Z,2.40
2023-02-18T08:40:15.799Z,2.53
2023-02-18T08:41:04.550Z,3.42
2023-02-18T08:41:51.531Z,2.47
2023-02-18T08:42:38.539Z,2.03
2023-02-18T08:43:25.520Z,2.45
2023-02-18T08:44:12.499Z,4.95
2023-02-18T08:44:59.482Z,2.90
2023-02-18T08:45:46.547Z,2.42
2023-02-18T08:46:35.221Z,2.47
2023-02-18T08:48:16.594Z,2.65
2023-02-18T08:48:31.293Z,3.10
2023-02-18T08:49:21.206Z,2.75
2023-02-18T08:50:08.536Z,2.90
2023-02-18T08:50:55.660Z,2.85
2023-02-18T08:51:42.918Z,2.42
2023-02-18T08:52:29.928Z,2.87
2023-02-18T08:53:17.592Z,2.50
2023-02-18T08:54:04.748Z,2.65
2023-02-18T08:54:52.081Z,3.35
2023-02-18T08:55:41.056Z,2.40
2023-02-18T08:56:28.169Z,2.12
2023-02-18T08:57:15.222Z,1.87
2023-02-18T08:58:02.259Z,2.28
2023-02-18T08:58:49.218Z,1.92
2023-02-18T08:59:36.128Z,2.12
2023-02-18T09:00:23.366Z,2.70
2023-02-18T09:01:12.541Z,2.97
2023-02-18T09:01:59.577Z,2.62
2023-02-18T09:02:48.009Z,2.03
2023-02-18T09:03:35.734Z,3.17
2023-02-18T09:04:23.919Z,2.00
2023-02-18T09:05:11.413Z,2.30
2023-02-18T09:05:59.698Z,2.03
2023-02-18T09:06:47.100Z,2.47
2023-02-18T09:07:34.132Z,2.70
2023-02-18T09:08:21.059Z,2.45
2023-02-18T09:09:08.167Z,2.22
2023-02-18T09:09:55.240Z,2.37
2023-02-18T09:10:42.158Z,2.45
2023-02-18T09:11:29.356Z,2.47
2023-02-18T09:12:16.372Z,2.47
2023-02-18T09:13:03.519Z,2.25
2023-02-18T09:13:50.530Z,2.40
2023-02-18T09:14:37.480Z,1.98
2023-02-18T09:15:24.801Z,2.78
2023-02-18T09:16:20.517Z,2.55
2023-02-18T09:17:07.643Z,2.00
2023-02-18T09:17:54.772Z,3.20
2023-02-18T09:18:41.943Z,2.28
2023-02-18T09:19:28.858Z,3.03
2023-02-18T09:20:15.818Z,2.03
2023-02-18T09:21:04.169Z,3.05
2023-02-18T09:21:53.436Z,2.55
2023-02-18T09:22:40.998Z,3.53
2023-02-18T09:23:29.591Z,2.62
2023-02-18T09:24:16.988Z,3.35
2023-02-18T09:25:04.649Z,3.05
2023-02-18T09:25:51.535Z,2.30
2023-02-18T09:26:39.584Z,3.87
2023-02-18T09:27:26.658Z,3.28
2023-02-18T09:28:13.606Z,2.65
2023-02-18T09:29:00.604Z,3.20
2023-02-18T09:29:48.447Z,2.30
2023-02-18T09:30:35.513Z,2.58
2023-02-18T09:31:25.250Z,2.87
2023-02-18T09:32:15.966Z,2.72
2023-02-18T09:33:06.986Z,2.10
2023-02-18T09:34:01.843Z,4.20
2023-02-18T09:34:48.865Z,2.72
2023-02-18T09:35:39.982Z,2.37
2023-02-18T09:36:27.811Z,2.58
2023-02-18T09:37:15.902Z,2.80
2023-02-18T09:38:03.572Z,3.22
2023-02-18T09:38:50.811Z,2.55
2023-02-18T09:39:38.314Z,2.50
2023-02-18T09:40:28.624Z,3.55
2023-02-18T09:41:29.516Z,2.95
2023-02-18T09:42:18.763Z,3.33
2023-02-18T09:43:05.794Z,2.72
2023-02-18T09:43:56.198Z,5.68
2023-02-18T09:44:52.319Z,2.62
2023-02-18T09:45:39.403Z,3.97
2023-02-18T09:46:33.795Z,3.87
2023-02-18T09:47:40.037Z,4.50
2023-02-18T09:48:33.558Z,2.58
2023-02-18T09:49:24.192Z,3.10
2023-02-18T09:50:40.412Z,3.10
2023-02-18T09:51:27.522Z,3.03
2023-02-18T09:52:24.040Z,3.92
2023-02-18T09:53:13.017Z,2.28
2023-02-18T09:54:00.126Z,2.47
2023-02-18T09:54:47.171Z,2.62
2023-02-18T09:55:39.064Z,4.62
2023-02-18T09:56:32.080Z,2.20
2023-02-18T09:57:29.647Z,2.58
2023-02-18T09:58:22.072Z,2.90
2023-02-18T09:59:15.556Z,2.80
2023-02-18T10:00:07.005Z,2.25
2023-02-18T10:01:12.401Z,2.85
2023-02-18T10:02:02.264Z,3.75
2023-02-18T10:03:02.312Z,2.10
2023-02-18T10:03:49.458Z,3.03
2023-02-18T10:04:41.939Z,2.55
2023-02-18T10:05:30.507Z,2.83
2023-02-18T10:06:24.654Z,2.75
2023-02-18T10:07:22.198Z,4.87
2023-02-18T10:08:23.467Z,3.12
2023-02-18T10:09:20.786Z,1.90
2023-02-18T10:10:22.563Z,2.40
2023-02-18T10:11:24.380Z,3.62
2023-02-18T10:12:21.261Z,2.12
2023-02-18T10:13:17.990Z,2.85
2023-02-18T10:14:10.883Z,2.55
2023-02-18T10:15:00.326Z,2.75
2023-02-18T10:15:48.767Z,1.85
2023-02-18T10:16:35.887Z,2.55
2023-02-18T10:17:28.104Z,4.32
2023-02-18T10:18:23.143Z,2.37
2023-02-18T10:19:15.874Z,4.12
2023-02-18T10:20:08.365Z,2.83
2023-02-18T10:21:10.766Z,2.85
2023-02-18T10:21:57.894Z,3.10
2023-02-18T10:22:45.021Z,2.00
2023-02-18T10:23:34.868Z,2.20
2023-02-18T10:24:29.638Z,3.10
2023-02-18T10:25:19.795Z,3.47
2023-02-18T10:26:14.249Z,3.10
2023-02-18T10:27:02.769Z,2.15
2023-02-18T10:27:51.502Z,3.50
2023-02-18T10:28:38.923Z,3.00
2023-02-18T10:29:26.617Z,2.17
2023-02-18T10:30:38.112Z,3.00
2023-02-18T10:31:37.420Z,2.25
2023-02-18T10:32:28.246Z,2.75
2023-02-18T10:33:32.606Z,2.60
2023-02-18T10:34:34.446Z,4.05
2023-02-18T10:35:25.914Z,3.65
2023-02-18T10:36:24.587Z,2.87
2023-02-18T10:37:47.616Z,2.50
2023-02-18T10:38:42.869Z,2.33
2023-02-18T10:39:52.386Z,2.53
2023-02-18T10:40:51.225Z,2.25
2023-02-18T10:42:13.607Z,3.40
2023-02-18T10:43:37.995Z,2.03
2023-02-18T10:44:44.637Z,4.00
2023-02-18T10:45:39.116Z,5.12
2023-02-18T10:46:31.669Z,2.83
2023-02-18T10:47:27.897Z,2.97
2023-02-18T10:48:23.755Z,2.25
2023-02-18T10:49:26.441Z,3.05
2023-02-18T10:50:24.608Z,2.05
2023-02-18T10:51:22.986Z,1.62
2023-02-18T10:52:15.900Z,2.33
2023-02-18T10:53:13.247Z,2.00
2023-02-18T10:54:00.717Z,2.22
2023-02-18T10:54:53.935Z,1.85
2023-02-18T10:55:46.467Z,1.87
2023-02-18T10:56:40.882Z,1.23
2023-02-18T10:57:28.403Z,2.05
2023-02-18T10:58:36.775Z,1.73
2023-02-18T10:59:26.001Z,2.00